Time;durP1;ratioP1;P1;durP2;ratioP2;P2;SDS_P1;SDS_P2;PMS_P1;PMS_P2;Temp;Humidity;BMP_temperature;BMP_pressure;BME280_temperature;BME280_humidity;BME280_pressure;Samples;Min_cycle;Max_cycle;Signal;HPM_P1;HPM_P2
2021/12/29 00:00:40;;;;;;;81.10;21.43;;;;;;;7.33;100.00;96546.34;5068410;28;20200;-59
2021/12/29 00:03:07;;;;;;;74.27;20.93;;;;;;;7.22;100.00;96545.06;5069606;28;20193;-65
2021/12/29 00:05:35;;;;;;;59.47;19.27;;;;;;;7.23;100.00;96545.00;5068485;28;20216;-59
2021/12/29 00:08:05;;;;;;;83.83;22.00;;;;;;;7.26;100.00;96544.03;5068974;28;20201;-59
2021/12/29 00:10:32;;;;;;;154.90;23.30;;;;;;;7.24;100.00;96546.69;5084981;28;20203;-62
2021/12/29 00:13:00;;;;;;;98.30;21.90;;;;;;;7.22;100.00;96543.34;5068589;28;20242;-60
2021/12/29 00:15:28;;;;;;;96.10;22.33;;;;;;;7.24;100.00;96535.56;5069512;28;20197;-63
2021/12/29 00:17:57;;;;;;;72.63;20.83;;;;;;;7.31;100.00;96536.97;5068507;28;20197;-58
2021/12/29 00:20:28;;;;;;;70.10;22.77;;;;;;;7.19;100.00;96535.72;5069381;28;20686;-58
2021/12/29 00:23:00;;;;;;;108.83;22.57;;;;;;;7.14;100.00;96518.81;5069466;28;20200;-58
2021/12/29 00:25:28;;;;;;;76.00;22.20;;;;;;;7.38;100.00;96540.97;5070176;28;20209;-58
2021/12/29 00:27:58;;;;;;;91.93;21.57;;;;;;;7.30;100.00;96528.41;5070672;28;20655;-57
2021/12/29 00:30:26;;;;;;;67.33;20.47;;;;;;;7.25;100.00;96526.94;5070009;28;20710;-61
2021/12/29 00:32:57;;;;;;;88.13;21.37;;;;;;;7.37;100.00;96536.72;5071058;28;20294;-57
2021/12/29 00:35:43;;;;;;;92.67;21.60;;;;;;;7.38;100.00;96544.38;5069792;28;20193;-57
2021/12/29 00:38:28;;;;;;;86.57;22.23;;;;;;;7.27;100.00;96543.97;5070589;28;20300;-58
2021/12/29 00:41:16;;;;;;;69.00;21.60;;;;;;;7.21;100.00;96540.84;5070774;28;20192;-58
2021/12/29 00:44:02;;;;;;;57.83;19.47;;;;;;;7.20;100.00;96540.00;5067514;28;20198;-57
2021/12/29 00:46:41;;;;;;;43.07;18.60;;;;;;;7.24;100.00;96541.53;5068428;28;20202;-58
2021/12/29 00:49:08;;;;;;;51.27;18.07;;;;;;;7.31;100.00;96536.97;5084759;28;20310;-64
2021/12/29 00:51:35;;;;;;;47.40;17.20;;;;;;;7.17;100.00;96532.38;5068690;28;20672;-68
2021/12/29 00:54:04;;;;;;;45.93;18.37;;;;;;;7.09;100.00;96526.69;5068930;28;20236;-58
2021/12/29 00:56:31;;;;;;;44.90;16.67;;;;;;;6.95;100.00;96513.56;5067778;28;20248;-62
2021/12/29 00:58:58;;;;;;;43.00;18.13;;;;;;;7.03;100.00;96538.97;5068918;28;20747;-58
2021/12/29 01:01:26;;;;;;;37.97;17.37;;;;;;;7.05;100.00;96534.59;5067744;28;20230;-60
2021/12/29 01:03:53;;;;;;;37.63;16.93;;;;;;;7.13;100.00;96528.25;5068435;28;20201;-60
2021/12/29 01:06:20;;;;;;;40.00;18.17;;;;;;;7.19;100.00;96538.31;5068782;28;20683;-59
2021/12/29 01:08:47;;;;;;;35.77;16.07;;;;;;;7.17;100.00;96523.84;5069303;28;20204;-59
2021/12/29 01:11:15;;;;;;;38.87;16.43;;;;;;;7.10;100.00;96527.56;5070389;28;20301;-66
2021/12/29 01:13:47;;;;;;;43.43;16.83;;;;;;;7.02;100.00;96524.44;5073189;28;20319;-64
2021/12/29 01:16:36;;;;;;;37.37;16.20;;;;;;;7.17;100.00;96534.13;5070458;28;20265;-66
2021/12/29 01:19:11;;;;;;;41.20;16.53;;;;;;;7.11;100.00;96530.06;5070712;28;20208;-61
2021/12/29 01:21:41;;;;;;;41.77;17.03;;;;;;;7.18;100.00;96522.94;5068717;28;20230;-60
2021/12/29 01:24:10;;;;;;;53.90;17.17;;;;;;;7.14;99.86;96519.66;5084284;28;20201;-64
2021/12/29 01:26:37;;;;;;;37.70;17.67;;;;;;;7.19;99.59;96527.19;5082799;28;20203;-62
2021/12/29 01:29:05;;;;;;;36.80;15.53;;;;;;;7.19;100.00;96522.03;5069142;28;20203;-61
2021/12/29 01:31:32;;;;;;;54.70;17.27;;;;;;;7.18;100.00;96523.78;5067961;28;20676;-58
2021/12/29 01:33:59;;;;;;;41.67;17.47;;;;;;;7.13;99.75;96523.09;5068267;28;20260;-58
2021/12/29 01:36:27;;;;;;;39.20;16.10;;;;;;;7.08;100.00;96519.06;5083197;28;20205;-60
2021/12/29 01:38:54;;;;;;;47.87;17.87;;;;;;;7.07;100.00;96509.63;5067731;28;20686;-59
2021/12/29 01:42:00;;;;;;;42.93;17.27;;;;;;;7.20;100.00;96518.53;5076081;28;20303;-57
2021/12/29 01:45:21;;;;;;;52.07;16.43;;;;;;;7.08;99.91;96513.91;5079134;28;20203;-59
2021/12/29 01:48:42;;;;;;;51.37;17.50;;;;;;;7.04;100.00;96509.78;5086858;28;20932;-56
2021/12/29 01:52:12;;;;;;;47.87;16.77;;;;;;;7.00;100.00;96513.38;5069807;28;20192;-56
2021/12/29 01:55:32;;;;;;;33.97;15.57;;;;;;;7.18;99.64;96521.19;5069099;28;20250;-57
2021/12/29 01:58:53;;;;;;;39.13;14.80;;;;;;;7.00;100.00;96515.94;5070245;28;20191;-67
2021/12/29 02:02:14;;;;;;;33.40;14.20;;;;;;;6.94;99.97;96511.91;5072260;28;20573;-67
2021/12/29 02:05:35;;;;;;;32.93;12.90;;;;;;;6.91;100.00;96516.31;5068379;28;20212;-58
2021/12/29 02:08:57;;;;;;;26.70;10.93;;;;;;;6.91;99.93;96511.16;5069119;28;20196;-58
2021/12/29 02:12:18;;;;;;;24.70;11.33;;;;;;;6.90;99.75;96509.50;5071861;28;20182;-60
2021/12/29 02:15:38;;;;;;;24.73;11.27;;;;;;;6.94;99.66;96506.75;5068876;28;20232;-62
2021/12/29 02:18:59;;;;;;;19.30;10.47;;;;;;;6.78;99.66;96505.66;5067022;28;20185;-59
2021/12/29 02:23:13;;;;;;;23.37;10.60;;;;;;;6.90;100.00;96506.94;5071599;28;20549;-58
2021/12/29 02:26:01;;;;;;;26.27;10.87;;;;;;;6.85;100.00;96507.09;5065181;28;20197;-60
2021/12/29 02:29:22;;;;;;;28.20;11.23;;;;;;;6.73;100.00;96499.88;5085993;28;20195;-58
2021/12/29 02:32:42;;;;;;;21.90;10.70;;;;;;;6.60;100.00;96501.22;5073373;28;20279;-66
2021/12/29 02:36:03;;;;;;;26.13;10.93;;;;;;;6.49;100.00;96493.94;5077759;28;20196;-57
2021/12/29 02:39:24;;;;;;;21.73;10.40;;;;;;;6.59;100.00;96495.25;5071556;28;20225;-58
2021/12/29 02:42:44;;;;;;;20.90;9.53;;;;;;;6.62;100.00;96498.59;5072795;28;20194;-57
2021/12/29 02:46:11;;;;;;;19.03;10.77;;;;;;;6.66;100.00;96495.84;5070596;28;20816;-58
2021/12/29 02:49:31;;;;;;;24.17;10.50;;;;;;;6.72;100.00;96484.50;5071154;28;20193;-58
2021/12/29 02:52:52;;;;;;;22.63;11.33;;;;;;;6.66;99.66;96489.88;5081481;28;20192;-60
2021/12/29 02:56:13;;;;;;;23.50;10.57;;;;;;;6.72;99.79;96487.06;5074319;28;20193;-62
2021/12/29 02:59:33;;;;;;;35.37;11.67;;;;;;;6.68;99.69;96477.81;5072782;28;20189;-59
2021/12/29 03:02:54;;;;;;;21.17;11.30;;;;;;;6.74;100.00;96487.84;5069709;28;20197;-59
2021/12/29 03:06:15;;;;;;;21.67;10.90;;;;;;;6.73;100.00;96481.00;5073999;28;20193;-57
2021/12/29 03:09:35;;;;;;;22.87;9.57;;;;;;;6.77;99.86;96482.56;5079120;28;20198;-58
2021/12/29 03:12:56;;;;;;;16.50;10.03;;;;;;;6.71;99.80;96478.50;5083946;28;20199;-58
2021/12/29 03:16:17;;;;;;;17.80;9.83;;;;;;;6.76;99.15;96491.19;5072732;28;20192;-58
2021/12/29 03:19:37;;;;;;;20.47;10.00;;;;;;;6.72;99.01;96490.47;5072706;28;20916;-57
2021/12/29 03:22:58;;;;;;;16.07;9.83;;;;;;;6.68;99.24;96488.91;5073782;28;20250;-58
2021/12/29 03:26:19;;;;;;;15.73;8.20;;;;;;;6.77;98.40;96498.84;5070219;28;20191;-61
2021/12/29 03:29:39;;;;;;;14.73;9.00;;;;;;;6.64;98.66;96502.78;5067409;28;20227;-58
2021/12/29 03:33:03;;;;;;;11.53;7.70;;;;;;;6.62;98.60;96503.75;5068351;28;20337;-61
2021/12/29 03:36:24;;;;;;;10.63;6.23;;;;;;;6.52;98.53;96493.81;5068757;28;20200;-59
2021/12/29 03:39:44;;;;;;;11.93;6.73;;;;;;;6.59;99.35;96494.44;5069474;28;20682;-58
2021/12/29 03:43:05;;;;;;;13.30;8.23;;;;;;;6.59;98.61;96490.09;5069551;28;20696;-63
2021/12/29 03:46:27;;;;;;;19.13;9.70;;;;;;;6.71;98.51;96487.97;5068671;28;20189;-58
2021/12/29 03:49:49;;;;;;;16.87;9.63;;;;;;;6.56;98.67;96495.38;5082910;28;20592;-59
2021/12/29 03:53:10;;;;;;;17.00;10.57;;;;;;;6.55;99.66;96493.69;5067149;28;20180;-61
2021/12/29 03:56:30;;;;;;;18.53;9.27;;;;;;;6.52;98.75;96482.69;5069227;28;20213;-62
2021/12/29 03:59:51;;;;;;;14.73;8.70;;;;;;;6.57;99.30;96497.03;5067135;28;20199;-65
2021/12/29 04:03:16;;;;;;;12.67;8.27;;;;;;;6.47;99.49;96490.59;5068003;28;20633;-59
2021/12/29 04:06:36;;;;;;;13.73;8.50;;;;;;;6.64;98.37;96494.22;5069512;28;20185;-57
2021/12/29 04:09:57;;;;;;;13.57;8.00;;;;;;;6.49;98.30;96478.50;5083690;28;20196;-64
2021/12/29 04:13:18;;;;;;;13.67;9.00;;;;;;;6.42;98.69;96484.78;5068835;28;20191;-60
2021/12/29 04:16:41;;;;;;;11.70;7.67;;;;;;;6.45;99.84;96483.84;5067962;28;20216;-62
2021/12/29 04:23:41;;;;;;;9.80;6.67;;;;;;;6.44;99.32;96485.56;5067880;28;20199;-64
2021/12/29 04:27:05;;;;;;;11.60;7.80;;;;;;;6.38;97.83;96474.69;5068067;28;20284;-70
2021/12/29 04:30:26;;;;;;;12.97;8.10;;;;;;;6.31;99.93;96473.22;5068585;28;20211;-60
2021/12/29 04:33:49;;;;;;;13.40;9.03;;;;;;;6.28;100.00;96481.06;5067305;28;20317;-67
2021/12/29 04:37:10;;;;;;;13.87;7.50;;;;;;;6.05;100.00;96474.22;5067090;28;20596;-62
2021/12/29 04:40:31;;;;;;;13.80;8.47;;;;;;;6.07;100.00;96475.00;5068147;28;20588;-62
2021/12/29 04:43:51;;;;;;;16.27;9.70;;;;;;;5.92;100.00;96483.25;5068085;28;20218;-65
2021/12/29 04:47:12;;;;;;;13.80;8.70;;;;;;;6.08;100.00;96476.66;5067722;28;20690;-62
2021/12/29 04:50:37;;;;;;;13.03;8.77;;;;;;;6.19;100.00;96476.25;5066992;28;20689;-58
2021/12/29 04:53:58;;;;;;;13.37;8.07;;;;;;;6.33;100.00;96461.16;5067140;28;20224;-58
2021/12/29 04:57:19;;;;;;;11.23;7.43;;;;;;;6.53;100.00;96466.38;5067887;28;20687;-57
2021/12/29 05:00:39;;;;;;;12.77;8.00;;;;;;;6.53;99.69;96462.03;5067991;28;20210;-60
2021/12/29 05:04:00;;;;;;;12.50;8.20;;;;;;;6.53;98.84;96468.94;5066833;28;20196;-58
2021/12/29 05:11:00;;;;;;;15.80;10.40;;;;;;;6.51;99.80;96469.00;5067421;28;20241;-58
2021/12/29 05:14:20;;;;;;;13.20;8.17;;;;;;;6.40;98.13;96466.00;5067810;28;20226;-58
2021/12/29 05:17:03;;;;;;;13.00;7.80;;;;;;;6.44;99.28;96454.72;5067083;28;20195;-58
2021/12/29 05:19:30;;;;;;;11.90;7.23;;;;;;;6.42;99.61;96456.50;5066767;28;20628;-58
2021/12/29 05:21:57;;;;;;;14.30;8.80;;;;;;;6.31;98.41;96453.50;5067863;28;20296;-58
2021/12/29 05:24:24;;;;;;;12.93;8.63;;;;;;;6.44;99.93;96459.84;5065156;28;20197;-60
2021/12/29 05:26:52;;;;;;;11.83;7.93;;;;;;;6.42;99.64;96456.50;5082836;28;20245;-57
2021/12/29 05:29:19;;;;;;;11.67;7.63;;;;;;;6.45;99.17;96460.69;5066754;28;20653;-58
2021/12/29 05:31:47;;;;;;;12.93;7.97;;;;;;;6.51;98.97;96452.75;5067039;28;20618;-58
2021/12/29 05:34:14;;;;;;;10.23;7.37;;;;;;;6.67;98.45;96465.81;5067269;28;20232;-57
2021/12/29 05:36:41;;;;;;;12.73;8.83;;;;;;;6.62;97.61;96453.13;5065303;28;20202;-57
2021/12/29 05:39:08;;;;;;;12.87;7.53;;;;;;;6.53;97.92;96456.09;5067372;28;20208;-58
2021/12/29 05:41:35;;;;;;;11.83;8.00;;;;;;;6.59;98.11;96468.72;5065932;28;20202;-57
2021/12/29 05:44:02;;;;;;;13.20;8.10;;;;;;;6.51;98.07;96461.28;5067365;28;20190;-57
2021/12/29 05:46:30;;;;;;;16.57;9.87;;;;;;;6.61;97.86;96468.63;5066610;28;20338;-58
2021/12/29 05:48:57;;;;;;;15.83;10.27;;;;;;;6.43;97.71;96458.16;5066819;28;20227;-59
2021/12/29 05:51:24;;;;;;;17.13;10.67;;;;;;;6.44;98.61;96447.00;5067021;28;20203;-57
2021/12/29 05:53:51;;;;;;;16.00;10.60;;;;;;;6.57;98.13;96458.47;5065883;28;20706;-61
2021/12/29 05:56:18;;;;;;;17.03;10.27;;;;;;;6.55;98.82;96464.59;5067099;28;20205;-57
2021/12/29 05:58:45;;;;;;;16.80;10.70;;;;;;;6.66;97.88;96461.59;5065916;28;20191;-63
2021/12/29 06:01:13;;;;;;;16.43;11.47;;;;;;;6.67;97.84;96469.25;5067409;28;20280;-58
2021/12/29 06:03:40;;;;;;;16.70;10.27;;;;;;;6.47;98.07;96443.47;5066208;28;20678;-66
2021/12/29 06:06:07;;;;;;;15.93;11.43;;;;;;;6.59;97.73;96472.09;5066611;28;20818;-67
2021/12/29 06:08:34;;;;;;;15.97;11.10;;;;;;;6.63;98.13;96475.41;5066778;28;20665;-65
2021/12/29 06:11:01;;;;;;;15.93;10.63;;;;;;;6.60;97.53;96470.38;5065678;28;20215;-58
2021/12/29 06:13:28;;;;;;;17.07;10.77;;;;;;;6.52;97.58;96460.38;5066587;28;20316;-58
2021/12/29 06:15:55;;;;;;;18.33;10.93;;;;;;;6.44;98.31;96461.59;5065663;28;20250;-58
2021/12/29 06:18:23;;;;;;;17.83;10.60;;;;;;;6.43;98.50;96458.16;5066936;28;20203;-67
2021/12/29 06:20:50;;;;;;;17.60;11.30;;;;;;;6.22;98.91;96458.16;5065733;28;20286;-57
2021/12/29 06:23:17;;;;;;;19.17;11.33;;;;;;;6.23;98.34;96442.69;5065278;28;20697;-59
2021/12/29 06:25:44;;;;;;;20.57;11.93;;;;;;;6.32;98.40;96439.75;5066478;28;20223;-59
2021/12/29 06:28:11;;;;;;;22.17;13.87;;;;;;;6.16;99.35;96436.09;5066175;28;20717;-69
2021/12/29 06:30:44;;;;;;;21.17;12.97;;;;;;;6.13;98.75;96433.66;5066780;28;20219;-66
2021/12/29 06:33:11;;;;;;;24.13;14.27;;;;;;;6.10;100.00;96438.06;5065573;28;20210;-65
2021/12/29 06:35:39;;;;;;;26.80;14.27;;;;;;;6.18;99.11;96438.63;5066686;28;20792;-65
2021/12/29 06:38:06;;;;;;;27.17;17.23;;;;;;;6.28;98.85;96442.50;5065525;28;20235;-69
2021/12/29 06:40:33;;;;;;;25.27;15.60;;;;;;;6.38;99.75;96448.97;5065334;28;20199;-68
2021/12/29 06:43:00;;;;;;;39.30;21.80;;;;;;;6.29;99.56;96439.03;5066480;28;20763;-68
2021/12/29 06:45:27;;;;;;;33.97;20.43;;;;;;;6.40;99.32;96448.00;5065686;28;20200;-69
2021/12/29 06:47:54;;;;;;;29.93;16.97;;;;;;;6.65;98.29;96453.03;5066498;28;20204;-67
2021/12/29 06:50:21;;;;;;;26.97;15.97;;;;;;;6.58;98.41;96455.00;5070154;28;20693;-67
2021/12/29 06:52:48;;;;;;;28.57;15.60;;;;;;;6.62;98.50;96449.72;5069821;28;20258;-61
2021/12/29 06:55:16;;;;;;;27.57;14.30;;;;;;;6.62;97.56;96463.44;5069230;28;20284;-59
2021/12/29 06:57:43;;;;;;;25.70;16.13;;;;;;;6.70;97.58;96445.13;5070575;28;20297;-57
2021/12/29 07:00:11;;;;;;;27.10;15.33;;;;;;;6.87;96.74;96468.44;5069655;28;20304;-64
2021/12/29 07:02:38;;;;;;;25.70;15.00;;;;;;;6.82;96.00;96478.09;5072380;28;20227;-61
2021/12/29 07:05:06;;;;;;;36.53;19.70;;;;;;;6.89;96.25;96474.34;5089958;28;20196;-61
2021/12/29 07:07:33;;;;;;;29.23;15.33;;;;;;;6.96;96.75;96479.22;5089030;28;20257;-57
2021/12/29 07:10:01;;;;;;;24.97;15.67;;;;;;;6.98;96.26;96479.13;5090127;28;20191;-58
2021/12/29 07:12:28;;;;;;;22.60;13.87;;;;;;;7.03;95.91;96490.06;5089277;28;20223;-57
2021/12/29 07:14:55;;;;;;;17.53;11.63;;;;;;;6.99;96.08;96488.53;5090070;28;20228;-58
2021/12/29 07:17:22;;;;;;;20.23;12.97;;;;;;;7.05;96.09;96483.97;5089194;28;20192;-58
2021/12/29 07:19:50;;;;;;;23.20;14.10;;;;;;;7.00;96.06;96485.91;5089326;28;20352;-57
2021/12/29 07:22:17;;;;;;;22.40;13.87;;;;;;;6.79;95.25;96485.91;5087482;28;20272;-57
2021/12/29 07:24:44;;;;;;;24.73;15.73;;;;;;;6.84;97.46;96489.16;5088923;28;20218;-57
2021/12/29 07:27:11;;;;;;;27.90;17.40;;;;;;;6.92;97.31;96484.53;5089666;28;20286;-58
2021/12/29 07:29:39;;;;;;;27.40;16.57;;;;;;;6.89;96.67;96488.06;5088233;28;20193;-58
2021/12/29 07:32:06;;;;;;;26.43;16.77;;;;;;;6.83;97.62;96474.59;5089524;28;20287;-59
2021/12/29 07:34:34;;;;;;;32.13;18.63;;;;;;;6.91;96.46;96475.13;5088282;28;20239;-61
2021/12/29 07:37:01;;;;;;;32.03;18.33;;;;;;;7.06;95.91;96482.22;5080716;28;20686;-58
2021/12/29 07:39:28;;;;;;;30.87;16.90;;;;;;;6.78;95.82;96468.81;5087860;28;20207;-60
2021/12/29 07:41:56;;;;;;;25.20;15.90;;;;;;;7.04;97.16;96481.47;5086821;28;20683;-59
2021/12/29 07:44:29;;;;;;;27.43;16.97;;;;;;;6.94;96.80;96478.44;5088277;28;20192;-59
2021/12/29 07:46:59;;;;;;;25.37;16.43;;;;;;;6.99;96.15;96483.38;5087988;28;20272;-58
2021/12/29 07:49:27;;;;;;;28.27;17.17;;;;;;;6.94;96.37;96480.16;5088932;28;20227;-57
2021/12/29 07:51:55;;;;;;;31.97;17.97;;;;;;;6.90;97.20;96478.63;5087996;28;20200;-58
2021/12/29 07:54:22;;;;;;;32.17;19.43;;;;;;;7.03;97.03;96482.34;5088190;28;20234;-58
2021/12/29 07:56:50;;;;;;;34.13;19.70;;;;;;;6.97;95.94;96482.59;5087899;28;20215;-59
2021/12/29 07:59:19;;;;;;;34.83;21.07;;;;;;;7.05;96.06;96489.13;5086924;28;20240;-57
2021/12/29 08:01:48;;;;;;;42.70;22.67;;;;;;;7.03;96.01;96490.06;5086834;28;20193;-60
2021/12/29 08:04:19;;;;;;;43.27;24.60;;;;;;;7.04;96.53;96496.91;5085321;28;20198;-58
2021/12/29 08:06:47;;;;;;;50.53;26.80;;;;;;;6.89;96.09;96452.03;5087951;28;20701;-60
2021/12/29 08:09:15;;;;;;;53.00;29.27;;;;;;;7.07;95.68;96468.44;5087278;28;20356;-58
2021/12/29 08:11:42;;;;;;;49.67;28.13;;;;;;;7.07;95.44;96455.56;5087043;28;20245;-59
2021/12/29 08:14:09;;;;;;;50.77;29.57;;;;;;;7.17;96.06;96477.50;5086882;28;20267;-65
2021/12/29 08:16:37;;;;;;;56.37;30.80;;;;;;;7.20;95.27;96477.34;5086536;28;20710;-60
2021/12/29 08:19:05;;;;;;;69.33;36.53;;;;;;;7.31;95.13;96482.91;5088728;28;20215;-58
2021/12/29 08:21:32;;;;;;;59.97;30.53;;;;;;;7.17;94.10;96473.16;5086681;28;20192;-67
2021/12/29 08:23:59;;;;;;;57.20;31.50;;;;;;;7.19;94.00;96480.84;5088177;28;20248;-65
2021/12/29 08:26:27;;;;;;;51.83;27.10;;;;;;;7.17;94.28;96474.91;5084842;28;20229;-65
2021/12/29 08:28:57;;;;;;;51.87;29.30;;;;;;;7.36;94.42;96470.66;5087961;28;20211;-60
2021/12/29 08:31:26;;;;;;;52.20;28.37;;;;;;;7.37;94.10;96473.19;5086653;28;20200;-60
2021/12/29 08:33:54;;;;;;;31.77;18.57;;;;;;;7.36;94.67;96474.06;5086350;28;20285;-57
2021/12/29 08:36:23;;;;;;;22.43;14.03;;;;;;;7.43;94.45;96473.81;5087861;28;20180;-61
2021/12/29 08:38:50;;;;;;;22.30;14.23;;;;;;;7.36;94.42;96474.06;5081892;28;20588;-58
2021/12/29 08:41:17;;;;;;;16.50;12.23;;;;;;;7.29;94.50;96466.69;5076198;28;20238;-57
2021/12/29 08:43:47;;;;;;;24.60;14.60;;;;;;;7.33;95.35;96463.06;5086406;28;20290;-58
2021/12/29 08:46:15;;;;;;;20.10;11.10;;;;;;;7.37;95.32;96462.88;5087325;28;20203;-56
2021/12/29 08:48:44;;;;;;;19.73;13.47;;;;;;;7.29;95.49;96446.06;5086158;28;20240;-61
2021/12/29 08:51:12;;;;;;;20.77;14.47;;;;;;;7.32;94.94;96451.09;5085260;28;20197;-58
2021/12/29 08:53:44;;;;;;;21.73;13.43;;;;;;;7.26;95.35;96446.19;5086139;28;20256;-61
2021/12/29 08:56:53;;;;;;;23.00;14.37;;;;;;;7.22;96.12;96454.94;5079206;28;20638;-64
2021/12/29 09:00:14;;;;;;;24.00;14.87;;;;;;;7.29;95.97;96449.47;5086291;28;20196;-57
2021/12/29 09:03:35;;;;;;;22.30;12.67;;;;;;;7.04;96.03;96450.56;5087133;28;20651;-57
2021/12/29 09:06:55;;;;;;;18.93;13.50;;;;;;;7.06;95.90;96443.63;5086663;28;20515;-62
2021/12/29 09:10:16;;;;;;;21.93;14.17;;;;;;;7.13;97.07;96437.34;5082509;28;20224;-56
2021/12/29 09:13:37;;;;;;;22.57;14.33;;;;;;;7.12;95.98;96439.06;5081582;28;20193;-57
2021/12/29 09:16:57;;;;;;;32.07;16.53;;;;;;;6.99;96.32;96429.31;5083746;28;20196;-61
2021/12/29 09:20:29;;;;;;;26.90;15.67;;;;;;;7.15;96.50;96423.47;5084947;28;20350;-59
2021/12/29 09:23:50;;;;;;;37.07;21.47;;;;;;;6.92;97.01;96418.47;5084348;28;20198;-58
2021/12/29 09:27:11;;;;;;;42.30;22.60;;;;;;;6.84;97.12;96417.09;5085715;28;20191;-57
2021/12/29 09:30:31;;;;;;;42.80;23.10;;;;;;;6.71;97.72;96408.19;5085283;28;20233;-60
2021/12/29 09:33:52;;;;;;;40.30;23.20;;;;;;;6.80;97.33;96415.56;5086052;28;20275;-58
2021/12/29 09:37:13;;;;;;;37.30;21.77;;;;;;;6.80;97.23;96405.25;5086609;28;20184;-61
2021/12/29 09:40:34;;;;;;;42.20;23.97;;;;;;;7.05;98.24;96411.03;5079263;28;20261;-59
2021/12/29 09:44:10;;;;;;;30.73;18.50;;;;;;;7.21;97.88;96399.22;5063307;28;20212;-57
2021/12/29 09:47:33;;;;;;;26.50;17.00;;;;;;;7.23;97.28;96394.84;5065255;28;20189;-59
2021/12/29 09:50:53;;;;;;;22.87;15.43;;;;;;;7.27;97.47;96393.81;5065892;28;20280;-56
2021/12/29 09:54:14;;;;;;;14.93;9.10;;;;;;;7.21;97.61;96394.06;5048897;28;20191;-56
2021/12/29 09:57:35;;;;;;;18.50;12.33;;;;;;;7.29;97.98;96392.81;5064362;28;20207;-56
2021/12/29 10:01:04;;;;;;;13.97;9.10;;;;;;;7.24;97.25;96388.78;5064686;28;20292;-56
2021/12/29 10:04:25;;;;;;;20.70;10.27;;;;;;;7.14;98.00;96380.63;5064665;28;20282;-57
2021/12/29 10:07:49;;;;;;;18.50;13.20;;;;;;;7.21;97.31;96376.03;5065730;28;20193;-57
2021/12/29 10:11:10;;;;;;;14.17;9.60;;;;;;;7.16;98.26;96381.38;5065979;28;20197;-57
2021/12/29 10:14:31;;;;;;;14.37;10.33;;;;;;;7.26;96.81;96380.09;5088367;28;20192;-59
2021/12/29 10:17:52;;;;;;;11.27;9.00;;;;;;;7.22;97.59;96375.13;5064922;28;20195;-58
2021/12/29 10:21:12;;;;;;;11.83;8.77;;;;;;;7.16;97.63;96367.66;5049125;28;20199;-58
2021/12/29 10:24:34;;;;;;;17.30;12.40;;;;;;;7.18;97.06;96365.88;5090016;28;20203;-57
2021/12/29 10:36:30;;;;;;;22.83;12.73;;;;;;;7.16;97.47;96357.38;5047603;28;20695;-77
2021/12/29 10:39:16;;;;;;;19.50;12.37;;;;;;;7.23;97.91;96358.78;5031028;28;20643;-80
2021/12/29 10:41:48;;;;;;;16.73;11.50;;;;;;;7.29;97.42;96354.19;5048522;28;20828;-79
2021/12/29 10:44:27;;;;;;;17.80;12.43;;;;;;;7.28;96.64;96338.81;5049835;28;20904;-79
2021/12/29 10:46:59;;;;;;;19.03;13.23;;;;;;;7.47;96.54;96346.56;5030460;28;20212;-77
2021/12/29 10:49:28;;;;;;;24.17;15.73;;;;;;;7.47;96.79;96355.13;5049008;28;20289;-78
2021/12/29 10:51:58;;;;;;;23.53;15.17;;;;;;;7.53;96.50;96352.28;5012053;28;20191;-75
2021/12/29 10:55:05;;;;;;;21.97;13.83;;;;;;;7.49;96.46;96349.91;5046370;28;20316;-75
2021/12/29 10:57:58;;;;;;;29.23;17.53;;;;;;;7.56;95.94;96336.69;5030090;28;20284;-78
2021/12/29 11:00:47;;;;;;;32.70;22.03;;;;;;;7.50;95.32;96331.78;5049549;28;20189;-77
2021/12/29 11:03:20;;;;;;;33.20;19.80;;;;;;;7.20;96.91;96323.72;5047505;28;20192;-78
2021/12/29 11:05:53;;;;;;;30.87;19.43;;;;;;;7.29;96.60;96319.88;5045788;28;20230;-77
2021/12/29 11:08:31;;;;;;;35.50;20.23;;;;;;;7.55;96.45;96329.84;5011693;28;20208;-78
2021/12/29 11:11:33;;;;;;;35.17;22.20;;;;;;;7.60;96.00;96321.91;5046452;28;20216;-77
2021/12/29 11:14:22;;;;;;;26.17;17.27;;;;;;;7.51;95.18;96312.88;5028313;28;20606;-80
2021/12/29 11:17:47;;;;;;;29.07;17.70;;;;;;;6.91;94.97;96228.91;5017389;28;20221;-79
2021/12/29 11:20:28;;;;;;;27.57;17.53;;;;;;;7.48;95.38;96297.53;5046192;28;20189;-78
2021/12/29 11:23:14;;;;;;;30.43;18.23;;;;;;;7.68;95.49;96312.09;5045688;28;20753;-77
2021/12/29 11:25:44;;;;;;;34.27;19.27;;;;;;;7.65;94.95;96287.31;5047448;28;20718;-81
2021/12/29 11:28:22;;;;;;;25.43;16.13;;;;;;;7.72;95.02;96306.75;5049982;28;20291;-80
2021/12/29 11:40:52;;;;;;;31.97;18.63;;;;;;;7.68;95.60;96300.06;4872639;29;20243;-67
2021/12/29 11:44:13;;;;;;;30.37;17.23;;;;;;;7.64;94.46;96297.69;4874574;29;20259;-65
2021/12/29 11:47:34;;;;;;;19.20;13.30;;;;;;;7.46;94.79;96293.38;4873663;29;20671;-65
2021/12/29 11:51:03;;;;;;;20.47;12.93;;;;;;;7.45;94.91;96289.13;4857877;29;20218;-66
2021/12/29 11:53:51;;;;;;;22.83;15.37;;;;;;;7.41;95.49;96291.00;4873312;29;20286;-66
2021/12/29 11:56:21;;;;;;;19.50;12.30;;;;;;;7.48;95.19;96281.28;4874298;29;20607;-66
2021/12/29 11:58:50;;;;;;;21.60;12.97;;;;;;;7.53;95.87;96285.28;4873925;29;20201;-66
2021/12/29 12:01:23;;;;;;;25.60;15.60;;;;;;;7.51;95.96;96287.09;4874825;29;20699;-66
2021/12/29 12:03:56;;;;;;;19.27;13.00;;;;;;;7.64;96.29;96280.50;4874034;29;20672;-67
2021/12/29 12:06:44;;;;;;;19.03;12.63;;;;;;;7.66;95.43;96276.09;4873794;29;20566;-66
2021/12/29 12:09:25;;;;;;;22.90;14.53;;;;;;;7.49;95.74;96270.88;4874547;29;20200;-65
2021/12/29 12:12:02;;;;;;;19.30;12.93;;;;;;;7.50;95.60;96269.97;4872828;29;20291;-66
2021/12/29 12:14:42;;;;;;;22.87;13.90;;;;;;;7.42;96.36;96266.09;4874412;29;20244;-66
2021/12/29 12:17:17;;;;;;;16.07;10.87;;;;;;;7.48;96.34;96271.78;4873762;29;20290;-67
2021/12/29 12:19:45;;;;;;;15.43;10.33;;;;;;;7.50;95.49;96269.16;4874233;29;20199;-67
2021/12/29 12:22:15;;;;;;;17.10;10.97;;;;;;;7.48;95.41;96271.78;4874198;29;20204;-66
2021/12/29 12:24:52;;;;;;;13.63;9.87;;;;;;;7.49;95.35;96272.63;4873931;29;20660;-65
2021/12/29 12:27:26;;;;;;;15.50;10.43;;;;;;;7.50;95.48;96269.97;4874046;29;20215;-66
2021/12/29 12:30:08;;;;;;;17.03;11.90;;;;;;;7.59;95.66;96281.59;4872335;29;20203;-66
2021/12/29 12:32:51;;;;;;;18.57;12.20;;;;;;;7.58;95.67;96270.47;4874097;29;20690;-65
2021/12/29 12:35:37;;;;;;;20.07;13.57;;;;;;;7.55;95.58;96283.47;4874017;29;20231;-65
2021/12/29 12:38:16;;;;;;;20.77;13.70;;;;;;;7.53;94.91;96277.56;4873798;29;20310;-66
2021/12/29 12:40:59;;;;;;;21.60;15.37;;;;;;;7.58;95.29;96267.06;4874497;29;20196;-66
2021/12/29 12:43:26;;;;;;;32.70;21.67;;;;;;;7.64;95.12;96271.91;4873560;29;20690;-65
2021/12/29 12:45:53;;;;;;;19.70;13.73;;;;;;;7.68;95.13;96274.28;4873441;29;20291;-66
2021/12/29 12:48:25;;;;;;;20.80;16.43;;;;;;;7.64;94.57;96272.75;4873742;29;20226;-68
2021/12/29 12:50:54;;;;;;;15.40;11.33;;;;;;;7.68;94.80;96273.44;4873002;29;20192;-67
2021/12/29 12:53:33;;;;;;;16.30;11.77;;;;;;;7.66;95.38;96264.97;4872530;29;20671;-67
2021/12/29 12:56:02;;;;;;;15.57;10.37;;;;;;;7.70;94.68;96272.47;4872605;29;20228;-67
2021/12/29 12:58:37;;;;;;;15.60;11.00;;;;;;;7.50;94.29;96258.84;4872819;29;20219;-72
2021/12/29 13:01:23;;;;;;;28.63;17.50;;;;;;;7.47;96.03;96274.44;4873467;29;20287;-81
2021/12/29 13:04:07;;;;;;;20.93;13.20;;;;;;;7.39;95.38;96272.22;4857671;29;20196;-82
2021/12/29 13:07:02;;;;;;;26.43;16.97;;;;;;;7.41;96.54;96265.25;4872629;29;20196;-82
2021/12/29 13:10:54;;;;;;;35.13;22.27;;;;;;;7.47;96.10;96283.00;4864781;29;20223;-82
2021/12/29 13:13:28;;;;;;;26.17;17.17;;;;;;;7.41;97.23;96285.84;4879280;29;20206;-80
2021/12/29 13:16:09;;;;;;;22.63;15.10;;;;;;;7.36;97.30;96282.63;4884365;29;20231;-81
2021/12/29 13:18:42;;;;;;;25.20;16.03;;;;;;;7.43;96.81;96293.50;4891831;29;20315;-80
2021/12/29 13:21:42;;;;;;;24.10;15.83;;;;;;;7.38;96.47;96276.53;4892340;29;20206;-81
2021/12/29 13:24:14;;;;;;;21.43;14.60;;;;;;;7.43;96.78;96294.34;4890505;29;20214;-80
2021/12/29 13:26:48;;;;;;;27.10;16.50;;;;;;;7.42;97.36;96274.63;4890556;29;20202;-79
2021/12/29 13:29:19;;;;;;;21.03;13.90;;;;;;;7.49;95.83;96283.75;4890884;29;20303;-80